Time;durP1;ratioP1;P1;durP2;ratioP2;P2;SDS_P1;SDS_P2;PMS_P1;PMS_P2;Temp;Humidity;BMP_temperature;BMP_pressure;BME280_temperature;BME280_humidity;BME280_pressure;Samples;Min_cycle;Max_cycle;Signal;HPM_P1;HPM_P2
2024/02/25 00:01:55;;;;;;;6.47;3.53;;;;;;;3.35;75.73;95760.78;4899926;29;20057;-79
2024/02/25 00:04:24;;;;;;;3.90;3.47;;;;;;;3.27;75.81;95758.97;4899418;29;20056;-79
2024/02/25 00:06:52;;;;;;;9.05;4.38;;;;;;;3.22;76.70;95758.63;4899194;29;20084;-78
2024/02/25 00:09:19;;;;;;;5.22;4.05;;;;;;;3.20;77.66;95758.78;4899562;29;20140;-78
2024/02/25 00:11:47;;;;;;;5.03;3.42;;;;;;;3.26;77.59;95752.22;4900133;29;20056;-78
2024/02/25 00:14:14;;;;;;;4.82;3.20;;;;;;;3.29;77.67;95755.25;4899612;29;20091;-78
2024/02/25 00:16:42;;;;;;;5.70;3.67;;;;;;;3.37;78.12;95756.25;4899432;29;20111;-78
2024/02/25 00:19:10;;;;;;;5.05;3.58;;;;;;;3.42;78.29;95752.25;4899605;29;20059;-78
2024/02/25 00:21:39;;;;;;;7.20;4.03;;;;;;;3.43;77.54;95758.19;4899467;29;20076;-78
2024/02/25 00:24:06;;;;;;;6.07;4.18;;;;;;;3.45;77.77;95767.38;4899472;29;20049;-78
2024/02/25 00:26:34;;;;;;;6.97;4.50;;;;;;;3.44;77.77;95767.56;4899332;29;20501;-78
2024/02/25 00:29:02;;;;;;;4.35;3.72;;;;;;;3.41;77.38;95771.25;4899612;29;20077;-78
2024/02/25 00:31:29;;;;;;;5.53;4.13;;;;;;;3.40;77.67;95766.25;4898706;29;20174;-78
2024/02/25 00:33:57;;;;;;;4.75;4.07;;;;;;;3.44;78.20;95768.34;4899559;29;20057;-78
2024/02/25 00:36:25;;;;;;;5.63;4.60;;;;;;;3.52;78.90;95772.75;4899867;29;20139;-79
2024/02/25 00:38:54;;;;;;;5.88;4.63;;;;;;;3.58;79.09;95779.81;4899359;29;20139;-78
2024/02/25 00:41:21;;;;;;;5.35;4.22;;;;;;;3.58;78.02;95784.97;4899047;29;20502;-78
2024/02/25 00:43:49;;;;;;;5.60;4.40;;;;;;;3.59;77.77;95781.44;4899115;29;20135;-78
2024/02/25 00:46:17;;;;;;;5.30;4.80;;;;;;;3.68;79.27;95779.69;4898945;29;20060;-78
2024/02/25 00:48:44;;;;;;;5.15;4.25;;;;;;;3.78;79.30;95782.13;4900109;29;20056;-79
2024/02/25 00:51:12;;;;;;;5.50;4.43;;;;;;;3.80;78.00;95787.91;4898365;29;20112;-78
2024/02/25 00:53:40;;;;;;;6.05;4.68;;;;;;;3.81;77.31;95781.81;4898460;29;20139;-78
2024/02/25 00:56:09;;;;;;;6.57;4.57;;;;;;;3.81;77.56;95774.06;4898665;29;20187;-79
2024/02/25 00:58:37;;;;;;;4.70;3.88;;;;;;;3.84;76.89;95781.47;4898872;29;20148;-78
2024/02/25 01:01:06;;;;;;;5.13;4.18;;;;;;;3.86;76.64;95779.56;4898467;29;20054;-79
2024/02/25 01:03:34;;;;;;;6.03;4.55;;;;;;;3.88;76.27;95772.47;4898445;29;20053;-78
2024/02/25 01:06:01;;;;;;;6.03;4.85;;;;;;;3.88;75.73;95778.41;4898598;29;20053;-78
2024/02/25 01:08:29;;;;;;;5.93;4.32;;;;;;;3.87;76.09;95770.81;4898085;29;20139;-78
2024/02/25 01:10:57;;;;;;;6.35;4.57;;;;;;;3.88;75.51;95772.47;4898180;29;20059;-78
2024/02/25 01:13:25;;;;;;;6.22;4.57;;;;;;;3.87;75.44;95770.81;4898076;29;20056;-79
2024/02/25 01:15:54;;;;;;;4.90;4.40;;;;;;;3.83;74.93;95764.41;4898151;29;20492;-78
2024/02/25 01:18:21;;;;;;;5.55;4.70;;;;;;;3.81;74.95;95776.66;4897953;29;20055;-79
2024/02/25 01:20:49;;;;;;;5.80;4.82;;;;;;;3.78;74.85;95762.28;4898208;29;20063;-78
2024/02/25 01:23:17;;;;;;;5.40;4.68;;;;;;;3.77;75.09;95760.69;4898738;29;20072;-78
2024/02/25 01:25:45;;;;;;;5.85;5.15;;;;;;;3.76;74.86;95750.50;4898574;29;20048;-79
2024/02/25 01:28:12;;;;;;;6.03;5.22;;;;;;;3.74;74.94;95752.44;4898349;29;20091;-79
2024/02/25 01:30:41;;;;;;;7.75;5.30;;;;;;;3.71;75.22;95751.00;4898265;29;20060;-79
2024/02/25 01:33:09;;;;;;;6.72;5.68;;;;;;;3.69;74.97;95753.72;4898693;29;20052;-78
2024/02/25 01:35:37;;;;;;;5.80;5.20;;;;;;;3.68;75.11;95746.97;4900850;29;20048;-79
2024/02/25 01:38:04;;;;;;;6.18;5.57;;;;;;;3.65;75.05;95744.72;4917081;29;20116;-79
2024/02/25 01:40:32;;;;;;;7.30;6.35;;;;;;;3.59;74.89;95742.78;4918654;29;20052;-79
2024/02/25 01:43:07;;;;;;;6.85;5.95;;;;;;;3.50;75.71;95748.88;4919356;29;20088;-79
2024/02/25 01:45:35;;;;;;;6.47;5.75;;;;;;;3.41;75.07;95752.38;4907235;29;20044;-79
2024/02/25 01:48:05;;;;;;;8.30;6.05;;;;;;;3.32;76.56;95756.72;4901084;29;20052;-79
2024/02/25 01:50:34;;;;;;;11.10;6.80;;;;;;;3.27;75.93;95758.97;4899103;29;20072;-79
2024/02/25 01:53:02;;;;;;;7.18;6.38;;;;;;;3.20;75.87;95750.25;4898691;29;20393;-79
2024/02/25 01:55:32;;;;;;;10.63;7.13;;;;;;;3.16;75.96;95749.75;4898649;29;20084;-78
2024/02/25 01:58:01;;;;;;;7.38;6.50;;;;;;;3.13;76.46;95742.34;4898456;29;20067;-78
2024/02/25 02:00:29;;;;;;;8.50;7.22;;;;;;;3.14;76.31;95743.16;4898513;29;20556;-78
2024/02/25 02:02:59;;;;;;;7.40;6.63;;;;;;;3.14;76.47;95749.09;4901220;29;20077;-78
2024/02/25 02:05:28;;;;;;;7.57;6.78;;;;;;;3.16;76.67;95744.59;4901755;29;20057;-78
2024/02/25 02:07:56;;;;;;;10.57;7.88;;;;;;;3.17;76.64;95740.25;4902152;29;20053;-78
2024/02/25 02:10:23;;;;;;;7.50;6.68;;;;;;;3.17;76.53;95743.66;4901911;29;20048;-78
2024/02/25 02:12:51;;;;;;;8.10;7.00;;;;;;;3.19;76.36;95746.06;4901825;29;20053;-78
2024/02/25 02:15:18;;;;;;;7.78;6.97;;;;;;;3.22;76.30;95735.44;4901616;29;20117;-78
2024/02/25 02:17:46;;;;;;;10.45;7.63;;;;;;;3.23;76.43;95737.84;4901458;29;20321;-78
2024/02/25 02:20:18;;;;;;;8.00;7.20;;;;;;;3.25;76.66;95733.34;4901293;29;20060;-79
2024/02/25 02:22:48;;;;;;;8.20;7.30;;;;;;;3.29;76.53;95728.69;4901943;29;20136;-78
2024/02/25 02:25:16;;;;;;;9.13;7.95;;;;;;;3.28;76.40;95720.16;4901356;29;20072;-78
2024/02/25 02:27:45;;;;;;;10.38;7.35;;;;;;;3.30;76.09;95723.38;4901652;29;20049;-78
2024/02/25 02:30:14;;;;;;;10.35;7.07;;;;;;;3.29;76.15;95718.38;4901400;29;20063;-78
2024/02/25 02:32:41;;;;;;;10.50;7.32;;;;;;;3.26;75.90;95722.09;4900978;29;20049;-78
2024/02/25 02:35:09;;;;;;;10.00;8.07;;;;;;;3.25;76.09;95727.38;4900995;29;20081;-78
2024/02/25 02:37:37;;;;;;;9.68;7.57;;;;;;;3.24;76.22;95718.84;4901857;29;20048;-78
2024/02/25 02:40:07;;;;;;;9.90;7.78;;;;;;;3.24;76.30;95718.84;4900947;29;20053;-78
2024/02/25 02:42:35;;;;;;;7.75;7.03;;;;;;;3.24;75.77;95724.00;4900787;29;20053;-78
2024/02/25 02:45:03;;;;;;;10.32;7.90;;;;;;;3.22;75.73;95723.34;4900271;29;20064;-78
2024/02/25 02:47:31;;;;;;;9.88;8.73;;;;;;;3.23;75.91;95724.97;4901114;29;20060;-78
2024/02/25 02:49:59;;;;;;;8.98;8.07;;;;;;;3.22;76.20;95723.34;4901046;29;20132;-78
2024/02/25 02:52:27;;;;;;;10.20;8.65;;;;;;;3.21;75.95;95716.56;4901224;29;20113;-78
2024/02/25 02:54:55;;;;;;;10.05;8.38;;;;;;;3.22;75.93;95725.94;4900911;29;20056;-78
2024/02/25 02:57:24;;;;;;;9.32;8.20;;;;;;;3.21;76.36;95719.16;4900908;29;20059;-78
2024/02/25 02:59:51;;;;;;;9.10;8.02;;;;;;;3.22;76.15;95719.97;4901558;29;20063;-78
2024/02/25 03:02:19;;;;;;;10.43;8.30;;;;;;;3.23;76.19;95724.16;4901037;29;20413;-79
2024/02/25 03:04:46;;;;;;;10.32;8.00;;;;;;;3.23;75.97;95717.22;4901139;29;20084;-78
2024/02/25 03:07:14;;;;;;;10.10;7.97;;;;;;;3.22;75.69;95715.63;4901174;29;20048;-78
2024/02/25 03:09:41;;;;;;;10.25;8.55;;;;;;;3.21;76.11;95711.41;4901101;29;20181;-78
2024/02/25 03:12:09;;;;;;;9.35;8.02;;;;;;;3.19;75.72;95715.94;4900461;29;20052;-78
2024/02/25 03:14:40;;;;;;;10.20;8.63;;;;;;;3.16;76.08;95710.28;4900486;29;20055;-78
2024/02/25 03:17:07;;;;;;;11.43;9.23;;;;;;;3.11;75.80;95700.47;4900235;29;20056;-78
2024/02/25 03:19:35;;;;;;;11.13;9.45;;;;;;;3.06;75.71;95700.09;4901139;29;20132;-78
2024/02/25 03:22:03;;;;;;;11.55;9.95;;;;;;;3.03;75.92;95696.09;4900414;29;20072;-78
2024/02/25 03:24:31;;;;;;;12.43;9.05;;;;;;;3.00;75.99;95700.75;4900148;29;20056;-78
2024/02/25 03:26:59;;;;;;;12.05;9.95;;;;;;;2.94;76.47;95704.75;4900158;29;20128;-78
2024/02/25 03:29:26;;;;;;;11.98;10.07;;;;;;;2.88;76.02;95703.59;4900945;29;20076;-78
2024/02/25 03:31:55;;;;;;;10.80;9.43;;;;;;;2.84;76.36;95697.16;4900680;29;20083;-79
2024/02/25 03:34:23;;;;;;;10.52;9.30;;;;;;;2.85;76.76;95703.91;4900259;29;20108;-78
2024/02/25 03:36:51;;;;;;;10.88;9.15;;;;;;;2.85;76.65;95701.34;4900421;29;20048;-79
2024/02/25 03:39:18;;;;;;;10.95;9.73;;;;;;;2.87;76.56;95696.84;4900448;29;20147;-79
2024/02/25 03:41:46;;;;;;;12.93;9.48;;;;;;;2.91;76.86;95704.25;4900792;29;20052;-78
2024/02/25 03:44:13;;;;;;;11.90;10.55;;;;;;;2.93;76.53;95699.75;4900164;29;20052;-78
2024/02/25 03:46:43;;;;;;;11.20;10.10;;;;;;;2.95;76.46;95708.13;4899749;29;20131;-78
2024/02/25 03:49:12;;;;;;;10.60;9.35;;;;;;;2.99;76.58;95704.28;4899864;29;20143;-79
2024/02/25 03:51:40;;;;;;;11.82;10.05;;;;;;;3.00;76.61;95705.91;4899820;29;20076;-79
2024/02/25 03:54:07;;;;;;;13.85;10.48;;;;;;;3.00;76.12;95700.75;4900023;29;20060;-78
2024/02/25 03:56:35;;;;;;;12.05;10.00;;;;;;;3.01;76.49;95692.06;4899683;29;20052;-79
2024/02/25 03:59:04;;;;;;;12.65;10.48;;;;;;;3.03;76.39;95690.13;4899540;29;20147;-78
2024/02/25 04:01:31;;;;;;;13.05;10.77;;;;;;;3.04;76.15;95691.72;4899965;29;20056;-78
2024/02/25 04:03:59;;;;;;;12.70;10.93;;;;;;;3.05;75.91;95698.50;4899312;29;20117;-78
2024/02/25 04:06:28;;;;;;;15.23;11.30;;;;;;;3.01;76.02;95694.63;4899097;29;20489;-78
2024/02/25 04:08:56;;;;;;;13.13;11.15;;;;;;;2.99;76.13;95692.19;4899151;29;20060;-79
2024/02/25 04:11:23;;;;;;;12.82;10.27;;;;;;;2.95;75.81;95688.34;4899158;29;20527;-78
2024/02/25 04:13:51;;;;;;;13.75;11.50;;;;;;;2.93;76.36;95685.13;4898993;29;20083;-78
2024/02/25 04:16:19;;;;;;;12.40;10.85;;;;;;;2.92;76.27;95693.00;4898887;29;20101;-78
2024/02/25 04:18:46;;;;;;;12.57;11.10;;;;;;;2.88;76.10;95693.28;4898861;29;20080;-78
2024/02/25 04:21:14;;;;;;;12.07;10.40;;;;;;;2.89;75.96;95694.94;4898978;29;20497;-78
2024/02/25 04:23:44;;;;;;;12.35;10.32;;;;;;;2.89;76.42;95697.50;4899424;29;20049;-78
2024/02/25 04:26:11;;;;;;;12.63;9.65;;;;;;;2.92;76.20;95686.06;4897970;29;20048;-78
2024/02/25 04:28:39;;;;;;;11.10;9.25;;;;;;;2.93;76.13;95687.69;4898869;29;20080;-78
2024/02/25 04:31:06;;;;;;;13.30;10.32;;;;;;;2.95;77.59;95690.09;4898856;29;20053;-78
2024/02/25 04:33:34;;;;;;;10.52;9.43;;;;;;;3.01;77.81;95692.06;4898633;29;20112;-78
2024/02/25 04:36:02;;;;;;;11.55;9.68;;;;;;;3.03;76.56;95687.56;4898342;29;20091;-78
2024/02/25 04:38:29;;;;;;;10.80;9.00;;;;;;;3.05;76.30;95688.19;4899155;29;20139;-78
2024/02/25 04:40:59;;;;;;;11.43;9.25;;;;;;;3.03;75.98;95679.81;4898742;29;20053;-78
2024/02/25 04:43:26;;;;;;;14.10;9.45;;;;;;;2.99;75.63;95675.94;4898548;29;20052;-78
2024/02/25 04:45:54;;;;;;;11.45;9.38;;;;;;;2.93;75.68;95672.25;4898489;29;20489;-78
2024/02/25 04:48:21;;;;;;;9.57;8.05;;;;;;;2.89;75.40;95674.31;4898705;29;20291;-78
2024/02/25 04:50:49;;;;;;;9.45;7.78;;;;;;;2.89;75.29;95666.59;4898322;29;20084;-78
2024/02/25 04:53:17;;;;;;;10.68;8.77;;;;;;;2.88;75.51;95662.38;4898265;29;20075;-78
2024/02/25 04:55:45;;;;;;;10.23;7.90;;;;;;;2.86;75.89;95669.50;4898325;29;20095;-78
2024/02/25 04:58:14;;;;;;;9.85;8.13;;;;;;;2.84;75.67;95666.25;4898242;29;20079;-78
2024/02/25 05:00:41;;;;;;;10.02;7.88;;;;;;;2.84;75.40;95666.25;4898473;29;20060;-78
2024/02/25 05:03:09;;;;;;;12.30;9.30;;;;;;;2.87;76.73;95675.44;4898580;29;20139;-78
2024/02/25 05:05:36;;;;;;;11.63;8.45;;;;;;;2.95;77.71;95667.75;4898183;29;20113;-78
2024/02/25 05:08:04;;;;;;;11.15;7.75;;;;;;;2.99;76.73;95679.31;4902163;29;20064;-78
2024/02/25 05:10:32;;;;;;;7.50;6.53;;;;;;;3.01;76.18;95686.91;4918067;29;20072;-79
2024/02/25 05:13:00;;;;;;;8.30;6.80;;;;;;;3.02;75.51;95685.94;4915826;29;20083;-78
2024/02/25 05:15:29;;;;;;;8.05;6.72;;;;;;;3.02;74.98;95688.53;4900999;29;20135;-79
2024/02/25 05:17:57;;;;;;;7.57;6.53;;;;;;;2.98;75.04;95682.88;4898330;29;20492;-78
2024/02/25 05:20:25;;;;;;;8.02;6.65;;;;;;;2.95;75.03;95682.38;4898151;29;20139;-78
2024/02/25 05:22:53;;;;;;;8.73;6.80;;;;;;;2.96;74.67;95673.69;4898228;29;20077;-78
2024/02/25 05:25:21;;;;;;;8.63;6.80;;;;;;;2.94;74.74;95676.41;4897671;29;20109;-78
2024/02/25 05:27:48;;;;;;;7.55;6.60;;;;;;;2.95;74.61;95677.22;4897937;29;20053;-78
2024/02/25 05:30:16;;;;;;;7.40;6.57;;;;;;;2.94;74.89;95683.34;4898149;29;20056;-78
2024/02/25 05:32:45;;;;;;;7.75;6.65;;;;;;;2.89;74.74;95679.47;4898083;29;20116;-78
2024/02/25 05:35:13;;;;;;;8.55;6.60;;;;;;;2.86;74.72;95678.97;4897974;29;20075;-78
2024/02/25 05:37:40;;;;;;;9.05;6.38;;;;;;;2.83;74.60;95684.44;4897840;29;20142;-78
2024/02/25 05:40:10;;;;;;;8.02;6.97;;;;;;;2.79;74.62;95681.34;4898123;29;20056;-78
2024/02/25 05:42:38;;;;;;;8.32;6.55;;;;;;;2.74;74.67;95681.03;4898367;29;20108;-78
2024/02/25 05:45:07;;;;;;;8.02;6.40;;;;;;;2.70;75.05;95679.72;4898088;29;20100;-78
2024/02/25 05:47:35;;;;;;;8.95;6.70;;;;;;;2.67;74.98;95685.19;4898046;29;20056;-78
2024/02/25 05:50:04;;;;;;;7.80;6.65;;;;;;;2.64;74.94;95686.28;4897915;29;20048;-78
2024/02/25 05:52:32;;;;;;;7.70;6.88;;;;;;;2.62;74.96;95688.25;4897415;29;20053;-78
2024/02/25 05:55:00;;;;;;;7.40;6.40;;;;;;;2.60;74.79;95679.03;4897805;29;20111;-78
2024/02/25 05:57:28;;;;;;;9.25;6.95;;;;;;;2.56;75.02;95677.72;4898787;29;20056;-79
2024/02/25 05:59:56;;;;;;;10.18;7.07;;;;;;;2.52;75.37;95681.59;4899303;29;20159;-78
2024/02/25 06:02:24;;;;;;;10.27;7.65;;;;;;;2.46;74.99;95683.78;4899639;29;20532;-78
2024/02/25 06:04:53;;;;;;;9.75;7.93;;;;;;;2.42;75.44;95679.91;4898418;29;20052;-78
2024/02/25 06:07:24;;;;;;;9.60;7.72;;;;;;;2.36;75.60;95679.72;4907015;29;20369;-79
2024/02/25 06:09:52;;;;;;;9.73;8.10;;;;;;;2.29;75.40;95689.03;4904405;29;20056;-78
2024/02/25 06:12:20;;;;;;;11.25;8.20;;;;;;;2.21;76.00;95682.88;4899056;29;20457;-78
2024/02/25 06:14:47;;;;;;;11.05;8.27;;;;;;;2.15;75.92;95686.06;4898400;29;20461;-78
2024/02/25 06:17:15;;;;;;;11.85;8.88;;;;;;;2.09;76.16;95696.16;4899955;29;20048;-78
2024/02/25 06:19:42;;;;;;;11.32;8.63;;;;;;;2.05;76.32;95699.00;4898746;29;20500;-78
2024/02/25 06:22:10;;;;;;;10.80;8.68;;;;;;;2.03;76.77;95702.69;4897540;29;20059;-78
2024/02/25 06:24:39;;;;;;;12.52;9.57;;;;;;;2.00;76.82;95693.50;4897198;29;20056;-78
2024/02/25 06:27:06;;;;;;;12.43;9.75;;;;;;;1.98;76.85;95690.28;4897818;29;20059;-78
2024/02/25 06:29:34;;;;;;;12.25;9.98;;;;;;;1.97;76.89;95698.97;4897881;29;20055;-79
2024/02/25 06:32:02;;;;;;;13.68;10.10;;;;;;;1.94;77.20;95694.09;4897689;29;20052;-78
2024/02/25 06:34:30;;;;;;;15.13;11.32;;;;;;;1.92;77.18;95696.03;4897791;29;20056;-78
2024/02/25 06:36:57;;;;;;;14.65;11.50;;;;;;;1.89;77.19;95700.69;4898333;29;20057;-78
2024/02/25 06:39:25;;;;;;;14.93;11.57;;;;;;;1.84;77.07;95708.84;4898009;29;20140;-78
2024/02/25 06:41:54;;;;;;;15.93;11.95;;;;;;;1.77;77.51;95703.50;4898758;29;20466;-78
2024/02/25 06:44:22;;;;;;;14.60;11.32;;;;;;;1.72;77.44;95704.88;4897408;29;20049;-78
2024/02/25 06:46:53;;;;;;;15.15;12.13;;;;;;;1.68;77.52;95708.69;4898162;29;20052;-78
2024/02/25 06:49:22;;;;;;;14.27;12.20;;;;;;;1.67;77.56;95709.66;4899673;29;20080;-78
2024/02/25 06:51:50;;;;;;;13.65;10.98;;;;;;;1.69;77.94;95697.47;4901334;29;20428;-78
2024/02/25 06:54:18;;;;;;;14.05;11.07;;;;;;;1.72;77.87;95700.53;4901176;29;20088;-78
2024/02/25 06:56:45;;;;;;;13.55;10.80;;;;;;;1.80;78.42;95704.94;4900238;29;20129;-78
2024/02/25 06:59:14;;;;;;;15.88;12.13;;;;;;;1.85;77.80;95707.88;4900767;29;20395;-78
2024/02/25 07:01:42;;;;;;;15.35;11.63;;;;;;;1.89;77.94;95704.03;4901045;29;20140;-78
2024/02/25 07:04:09;;;;;;;14.40;11.02;;;;;;;1.94;77.80;95704.41;4900469;29;20091;-77
2024/02/25 07:06:37;;;;;;;12.32;10.55;;;;;;;2.00;77.82;95701.22;4923775;29;20048;-77
2024/02/25 07:09:05;;;;;;;12.35;10.02;;;;;;;2.10;78.03;95705.47;4923770;29;20081;-78
2024/02/25 07:11:32;;;;;;;13.48;10.82;;;;;;;2.18;77.29;95705.53;4913253;29;20048;-78
2024/02/25 07:14:00;;;;;;;14.48;11.18;;;;;;;2.25;77.21;95701.38;4900463;29;20480;-78
2024/02/25 07:16:29;;;;;;;13.15;11.00;;;;;;;2.36;77.04;95703.72;4900027;29;20083;-78
2024/02/25 07:18:57;;;;;;;11.00;9.45;;;;;;;2.51;77.21;95696.22;4900308;29;20096;-78
2024/02/25 07:21:26;;;;;;;12.18;9.73;;;;;;;2.65;76.54;95698.22;4900487;29;20497;-78
2024/02/25 07:23:54;;;;;;;11.35;9.95;;;;;;;2.74;76.61;95691.31;4900524;29;20135;-78
2024/02/25 07:26:21;;;;;;;10.48;9.10;;;;;;;2.88;76.15;95684.78;4900343;29;20482;-78
2024/02/25 07:28:49;;;;;;;11.50;9.10;;;;;;;3.06;76.39;95697.53;4900419;29;20055;-78
2024/02/25 07:31:17;;;;;;;10.75;8.45;;;;;;;3.29;75.93;95700.34;4900985;29;20071;-78
2024/02/25 07:33:50;;;;;;;10.18;8.45;;;;;;;3.44;75.24;95695.38;4900166;29;20060;-78
2024/02/25 07:36:18;;;;;;;10.05;8.52;;;;;;;3.59;74.95;95695.56;4900630;29;20103;-78
2024/02/25 07:38:45;;;;;;;9.15;7.68;;;;;;;3.74;74.43;95703.44;4900252;29;20088;-78
2024/02/25 07:41:13;;;;;;;11.88;7.95;;;;;;;3.90;73.75;95703.44;4900554;29;20080;-78
2024/02/25 07:43:41;;;;;;;9.93;7.47;;;;;;;4.09;73.41;95704.88;4900064;29;20049;-78
2024/02/25 07:46:09;;;;;;;9.80;7.55;;;;;;;4.29;72.93;95703.56;4900204;29;20057;-78
2024/02/25 07:48:42;;;;;;;7.63;6.78;;;;;;;4.53;71.81;95705.28;4900163;29;20051;-78
2024/02/25 07:51:11;;;;;;;8.52;7.43;;;;;;;4.73;71.62;95704.91;4900274;29;20059;-78
2024/02/25 07:53:39;;;;;;;8.13;6.65;;;;;;;4.95;71.55;95703.34;4899963;29;20523;-78
2024/02/25 07:56:07;;;;;;;7.10;6.15;;;;;;;5.16;70.72;95702.78;4899864;29;20049;-78
2024/02/25 07:58:34;;;;;;;10.93;6.95;;;;;;;5.37;70.34;95702.94;4899690;29;20104;-78
2024/02/25 08:01:02;;;;;;;5.75;5.20;;;;;;;5.61;69.70;95698.59;4899848;29;20056;-78
2024/02/25 08:03:29;;;;;;;6.75;5.78;;;;;;;5.81;68.72;95695.53;4900708;29;20065;-78
2024/02/25 08:05:57;;;;;;;6.60;5.90;;;;;;;6.00;68.54;95697.69;4899806;29;20080;-78
2024/02/25 08:08:26;;;;;;;7.53;5.82;;;;;;;6.19;67.58;95692.00;4899967;29;20087;-79
2024/02/25 08:10:53;;;;;;;8.93;5.63;;;;;;;6.41;67.23;95697.31;4899721;29;20064;-78
2024/02/25 08:13:21;;;;;;;6.25;5.18;;;;;;;6.64;66.59;95699.00;4899923;29;20053;-78
2024/02/25 08:15:49;;;;;;;5.63;5.03;;;;;;;6.83;65.85;95682.09;4899610;29;20057;-78
2024/02/25 08:18:16;;;;;;;5.97;4.90;;;;;;;7.05;65.42;95688.16;4899580;29;20067;-78
2024/02/25 08:20:44;;;;;;;5.55;4.63;;;;;;;7.32;64.77;95692.63;4899876;29;20072;-78
2024/02/25 08:23:11;;;;;;;5.43;4.90;;;;;;;7.56;64.00;95688.88;4899830;29;20539;-79
2024/02/25 08:25:40;;;;;;;8.73;4.93;;;;;;;7.79;63.03;95683.50;4899904;29;20136;-76
2024/02/25 08:28:08;;;;;;;4.97;4.00;;;;;;;8.03;62.70;95689.31;4899377;29;20056;-76
2024/02/25 08:30:36;;;;;;;6.05;5.40;;;;;;;8.28;62.22;95681.09;4899439;29;20151;-76
2024/02/25 08:33:05;;;;;;;5.18;4.30;;;;;;;8.55;61.37;95693.28;4901767;29;20057;-76
2024/02/25 08:35:33;;;;;;;4.82;4.30;;;;;;;8.80;61.08;95691.00;4902142;29;20113;-77
2024/02/25 08:38:01;;;;;;;5.78;4.20;;;;;;;9.02;60.18;95688.31;4900845;29;20053;-76
2024/02/25 08:40:30;;;;;;;5.57;4.22;;;;;;;9.23;59.81;95682.19;4899077;29;20120;-76
2024/02/25 08:42:58;;;;;;;4.43;3.55;;;;;;;9.53;58.62;95689.66;4918728;29;20040;-76
2024/02/25 08:45:26;;;;;;;3.28;2.97;;;;;;;9.84;58.38;95691.72;4918716;29;20080;-76
2024/02/25 08:47:54;;;;;;;2.67;2.13;;;;;;;10.09;57.01;95684.91;4908379;29;20056;-76
2024/02/25 08:50:22;;;;;;;4.50;2.70;;;;;;;10.30;57.00;95683.16;4900332;29;20397;-76
2024/02/25 08:52:50;;;;;;;5.30;2.97;;;;;;;10.59;56.26;95683.69;4899049;29;20063;-76
2024/02/25 08:55:17;;;;;;;3.75;2.83;;;;;;;10.81;55.99;95689.47;4899082;29;20099;-76
2024/02/25 08:57:45;;;;;;;3.58;2.05;;;;;;;11.02;55.24;95683.97;4898791;29;20084;-75
2024/02/25 09:00:15;;;;;;;4.25;3.17;;;;;;;11.31;53.34;95681.84;4898593;29;20138;-76
2024/02/25 09:02:42;;;;;;;3.67;2.58;;;;;;;11.54;53.30;95666.44;4899184;29;20077;-75
2024/02/25 09:05:10;;;;;;;2.58;2.38;;;;;;;11.74;53.29;95670.72;4898348;29;20512;-76
2024/02/25 09:07:38;;;;;;;2.15;1.80;;;;;;;11.90;53.62;95670.25;4898455;29;20049;-76
2024/02/25 09:10:07;;;;;;;2.15;1.95;;;;;;;12.07;52.75;95674.91;4898971;29;20073;-76
2024/02/25 09:12:37;;;;;;;6.75;2.55;;;;;;;12.20;54.51;95669.63;4898134;29;20080;-76
2024/02/25 09:15:06;;;;;;;2.50;1.92;;;;;;;12.37;54.84;95675.06;4898356;29;20143;-77
2024/02/25 09:17:35;;;;;;;2.20;2.00;;;;;;;12.60;54.90;95673.66;4898163;29;20053;-77
2024/02/25 09:20:04;;;;;;;2.45;1.85;;;;;;;12.83;51.04;95662.53;4897840;29;20050;-77
2024/02/25 09:22:32;;;;;;;2.25;1.25;;;;;;;13.04;53.83;95659.47;4898373;29;20124;-76
2024/02/25 09:24:59;;;;;;;2.10;1.90;;;;;;;13.22;52.43;95660.47;4898099;29;20091;-77
2024/02/25 09:27:27;;;;;;;2.28;1.92;;;;;;;13.30;49.34;95661.00;4898040;29;20152;-77
2024/02/25 09:29:55;;;;;;;1.42;1.25;;;;;;;13.15;48.93;95663.97;4898708;29;20136;-76
2024/02/25 09:32:23;;;;;;;1.52;1.40;;;;;;;12.98;48.22;95661.16;4898544;29;20053;-76
2024/02/25 09:34:52;;;;;;;1.50;1.40;;;;;;;12.88;47.57;95652.22;4897918;29;20048;-77
2024/02/25 09:37:20;;;;;;;2.30;1.40;;;;;;;12.87;51.61;95653.25;4899129;29;20067;-76
2024/02/25 09:39:48;;;;;;;1.48;1.23;;;;;;;12.89;48.91;95656.44;4898487;29;20076;-77
2024/02/25 09:42:19;;;;;;;2.25;1.70;;;;;;;12.93;47.22;95657.59;4898530;29;20088;-77
2024/02/25 09:44:47;;;;;;;1.30;1.20;;;;;;;12.96;47.61;95651.91;4898374;29;20167;-77
2024/02/25 09:47:15;;;;;;;2.45;1.73;;;;;;;12.87;47.65;95648.00;4898429;29;20059;-77
2024/02/25 09:49:43;;;;;;;1.98;1.20;;;;;;;12.80;47.22;95647.28;4897836;29;20080;-77
2024/02/25 09:52:14;;;;;;;1.25;1.15;;;;;;;12.69;47.17;95647.00;4898343;29;20052;-77
2024/02/25 09:54:42;;;;;;;1.00;1.00;;;;;;;12.63;47.40;95653.09;4898036;29;20044;-76
2024/02/25 09:57:11;;;;;;;1.35;1.25;;;;;;;12.48;51.79;95644.78;4897269;29;20108;-76
2024/02/25 09:59:38;;;;;;;2.15;1.27;;;;;;;12.41;52.36;95639.63;4897628;29;20080;-76
2024/02/25 10:02:08;;;;;;;2.45;1.38;;;;;;;12.44;50.14;95641.00;4897591;29;20064;-76
2024/02/25 10:04:36;;;;;;;1.65;1.15;;;;;;;12.41;48.08;95637.00;4896752;29;20059;-76
2024/02/25 10:07:05;;;;;;;5.72;1.60;;;;;;;12.35;48.42;95633.47;4897556;29;20139;-76
2024/02/25 10:09:34;;;;;;;0.98;0.93;;;;;;;12.42;48.42;95635.19;4897439;29;20051;-77
2024/02/25 10:12:03;;;;;;;1.67;1.30;;;;;;;12.72;47.75;95630.03;4897644;29;20079;-77
2024/02/25 10:14:31;;;;;;;1.20;1.10;;;;;;;12.91;47.25;95633.47;4897512;29;20063;-77
2024/02/25 10:17:03;;;;;;;0.75;0.75;;;;;;;13.11;49.23;95636.63;4897379;29;20066;-77
2024/02/25 10:19:31;;;;;;;1.30;1.20;;;;;;;13.47;46.56;95636.78;4897453;29;20053;-77
2024/02/25 10:22:07;;;;;;;0.85;0.80;;;;;;;13.84;44.45;95626.97;4911649;29;20128;-77
2024/02/25 10:24:36;;;;;;;3.40;1.80;;;;;;;14.28;48.60;95627.47;4914627;29;20053;-78
2024/02/25 10:27:10;;;;;;;2.25;1.20;;;;;;;14.70;47.75;95624.69;4913467;29;20055;-77
2024/02/25 10:29:53;;;;;;;1.17;0.80;;;;;;;15.21;43.33;95620.44;4902856;29;20052;-77
2024/02/25 10:32:23;;;;;;;0.63;0.63;;;;;;;15.72;42.03;95612.69;4901025;29;20063;-77
2024/02/25 10:34:52;;;;;;;2.15;0.75;;;;;;;16.06;40.46;95610.84;4901686;29;20060;-77
2024/02/25 10:37:22;;;;;;;1.67;0.68;;;;;;;16.23;39.63;95607.41;4901488;29;20048;-77
2024/02/25 10:39:55;;;;;;;1.83;0.80;;;;;;;16.44;39.47;95601.38;4901284;29;20136;-77
2024/02/25 10:42:24;;;;;;;2.08;0.82;;;;;;;16.67;39.19;95610.09;4901146;29;20466;-77
2024/02/25 10:44:53;;;;;;;1.02;0.60;;;;;;;16.73;37.95;95613.59;4900851;29;20563;-77
2024/02/25 10:47:23;;;;;;;0.65;0.55;;;;;;;16.67;40.55;95599.56;4900996;29;20052;-77
2024/02/25 10:49:54;;;;;;;1.52;0.60;;;;;;;16.72;38.40;95602.25;4900887;29;20116;-77
2024/02/25 10:52:25;;;;;;;1.10;1.00;;;;;;;16.74;39.80;95597.53;4900392;29;20062;-77
2024/02/25 10:54:57;;;;;;;1.05;0.80;;;;;;;16.89;39.70;95592.47;4900152;29;20140;-78
2024/02/25 10:57:25;;;;;;;1.67;0.88;;;;;;;17.11;38.82;95591.66;4900522;29;20474;-77
2024/02/25 10:59:56;;;;;;;3.15;1.15;;;;;;;17.19;37.06;95585.97;4900201;29;20501;-77
2024/02/25 11:02:26;;;;;;;0.95;0.50;;;;;;;17.24;40.74;95579.94;4900511;29;20087;-77
2024/02/25 11:04:54;;;;;;;0.70;0.50;;;;;;;17.43;39.50;95575.13;4899975;29;20100;-77
2024/02/25 11:07:22;;;;;;;3.20;0.63;;;;;;;17.65;38.30;95567.91;4900249;29;20128;-77
2024/02/25 11:09:50;;;;;;;0.50;0.50;;;;;;;17.80;40.81;95572.53;4900093;29;20052;-77
2024/02/25 11:12:24;;;;;;;0.68;0.60;;;;;;;17.90;41.38;95567.34;4899893;29;20056;-77
2024/02/25 11:14:53;;;;;;;0.90;0.70;;;;;;;18.20;36.59;95562.53;4899621;29;20053;-77
2024/02/25 11:17:27;;;;;;;0.80;0.65;;;;;;;18.54;39.22;95568.22;4899843;29;20053;-77
2024/02/25 11:20:01;;;;;;;1.02;0.60;;;;;;;18.81;35.91;95559.41;4899945;29;20096;-77
2024/02/25 11:22:39;;;;;;;0.60;0.40;;;;;;;19.09;36.04;95555.53;4900148;29;20132;-77
2024/02/25 11:25:30;;;;;;;1.00;0.80;;;;;;;19.53;37.67;95547.13;4899685;29;20420;-77
2024/02/25 11:28:00;;;;;;;1.48;0.85;;;;;;;20.05;37.77;95548.72;4899234;29;20140;-77
2024/02/25 11:30:44;;;;;;;0.40;0.40;;;;;;;20.34;33.71;95551.56;4899780;29;20139;-77
2024/02/25 11:33:43;;;;;;;1.40;0.88;;;;;;;20.56;34.02;95543.25;4899807;29;20053;-78
2024/02/25 11:36:12;;;;;;;0.63;0.50;;;;;;;20.86;34.03;95551.38;4900151;29;20060;-78
2024/02/25 11:38:42;;;;;;;1.15;0.60;;;;;;;20.92;30.66;95548.44;4901609;29;20131;-78
2024/02/25 11:41:11;;;;;;;1.05;0.43;;;;;;;20.71;30.85;95544.31;4900989;29;20052;-78
2024/02/25 11:43:42;;;;;;;1.23;0.57;;;;;;;20.53;30.47;95541.16;4901035;29;20056;-77